Time;durP1;ratioP1;P1;durP2;ratioP2;P2;SDS_P1;SDS_P2;PMS_P1;PMS_P2;Temp;Humidity;BMP_temperature;BMP_pressure;BME280_temperature;BME280_humidity;BME280_pressure;Samples;Min_cycle;Max_cycle;Signal;HPM_P1;HPM_P2
2021/09/17 00:01:31;;;;;;;14.15;8.35;;;;;;;14.26;54.59;99642.20;1761115;80;21432;-61
2021/09/17 00:03:58;;;;;;;11.35;7.80;;;;;;;14.28;54.51;99640.33;1745202;80;21399;-61
2021/09/17 00:06:25;;;;;;;;;;;;;;;14.30;54.43;99641.56;1749668;80;21467;-62
2021/09/17 00:08:52;;;;;;;13.15;7.62;;;;;;;14.31;54.18;99627.37;1745152;80;20429;-61
2021/09/17 00:11:20;;;;;;;11.18;8.68;;;;;;;14.32;54.30;99627.77;1750174;80;21455;-61
2021/09/17 00:13:48;;;;;;;15.28;8.08;;;;;;;14.32;54.27;99631.27;1772180;80;21521;-61
2021/09/17 00:16:16;;;;;;;17.12;8.03;;;;;;;14.33;54.33;99626.81;1767672;80;26813;-60
2021/09/17 00:18:44;;;;;;;14.80;8.80;;;;;;;14.36;54.27;99627.97;1757909;80;21493;-60
2021/09/17 00:21:11;;;;;;;17.10;8.93;;;;;;;14.36;54.07;99617.39;1744853;81;21533;-60
2021/09/17 00:23:40;;;;;;;14.33;8.40;;;;;;;14.40;54.02;99623.72;1747007;80;21403;-60
2021/09/17 00:26:08;;;;;;;13.75;8.53;;;;;;;14.40;54.11;99615.78;1744822;81;20945;-61
2021/09/17 00:28:35;;;;;;;13.18;8.70;;;;;;;14.45;54.02;99612.01;1751152;80;20981;-60
2021/09/17 00:31:02;;;;;;;17.57;9.13;;;;;;;14.45;54.02;99612.01;1775648;80;21501;-60
2021/09/17 00:33:31;;;;;;;13.62;8.45;;;;;;;14.48;53.99;99612.68;1770343;79;21475;-61
2021/09/17 00:35:58;;;;;;;13.43;8.78;;;;;;;14.52;53.86;99605.41;1771245;80;21867;-62
2021/09/17 00:38:25;;;;;;;12.13;8.43;;;;;;;14.54;53.94;99608.81;1744838;80;21431;-61
2021/09/17 00:40:53;;;;;;;16.40;8.55;;;;;;;14.57;53.63;99605.55;1767939;80;21517;-61
2021/09/17 00:43:20;;;;;;;16.00;8.83;;;;;;;14.60;53.55;99597.92;1757065;80;21607;-60
2021/09/17 00:45:48;;;;;;;17.67;9.18;;;;;;;14.64;53.45;99598.59;1755927;80;21411;-60
2021/09/17 00:48:15;;;;;;;18.25;8.40;;;;;;;14.66;53.37;99596.22;1752200;80;21517;-61
2021/09/17 00:50:43;;;;;;;11.65;7.90;;;;;;;14.69;53.39;99597.82;1745320;80;21592;-60
2021/09/17 00:53:09;;;;;;;12.00;7.87;;;;;;;14.71;53.50;99590.63;1744854;81;21435;-60
2021/09/17 00:55:36;;;;;;;11.73;8.43;;;;;;;14.73;53.65;99586.97;1717877;81;21426;-60
2021/09/17 00:58:03;;;;;;;12.05;8.25;;;;;;;14.75;53.45;99593.50;1757333;80;20996;-60
2021/09/17 01:00:32;;;;;;;15.05;8.48;;;;;;;14.77;53.20;99584.52;1772250;80;21647;-61
2021/09/17 01:02:59;;;;;;;18.30;8.25;;;;;;;14.82;53.13;99587.34;1748670;80;21411;-59
2021/09/17 01:05:26;;;;;;;16.02;8.65;;;;;;;14.84;53.02;99583.65;1746852;80;21513;-59
2021/09/17 01:07:52;;;;;;;10.53;7.92;;;;;;;14.85;53.01;99580.06;1745015;80;21659;-59
2021/09/17 01:10:20;;;;;;;11.75;8.50;;;;;;;14.85;52.99;99576.58;1747586;80;21695;-60
2021/09/17 01:12:47;;;;;;;12.00;8.30;;;;;;;14.85;52.93;99577.42;1757269;80;22005;-60
2021/09/17 01:15:14;;;;;;;;;;;;;;;14.88;52.80;99574.59;1722698;80;21489;-60
2021/09/17 01:17:43;;;;;;;11.18;8.15;;;;;;;14.87;52.77;99568.91;1743087;81;20421;-60
2021/09/17 01:20:14;;;;;;;10.85;7.92;;;;;;;14.83;52.69;99566.08;1741955;80;21589;-60
2021/09/17 01:22:41;;;;;;;13.80;7.50;;;;;;;14.83;52.59;99570.53;1746819;80;21395;-59
2021/09/17 01:25:13;;;;;;;13.20;8.13;;;;;;;14.81;52.52;99565.33;1747802;80;21387;-59
2021/09/17 01:27:44;;;;;;;11.73;8.08;;;;;;;14.80;52.51;99557.00;1761259;80;21394;-59
2021/09/17 01:30:12;;;;;;;11.15;7.50;;;;;;;14.81;52.37;99552.58;1774946;80;21446;-59
2021/09/17 01:32:42;;;;;;;14.28;7.67;;;;;;;14.83;52.33;99553.33;1748248;80;21431;-59
2021/09/17 01:35:13;;;;;;;13.22;7.75;;;;;;;14.83;52.30;99546.71;1747741;81;21451;-59
2021/09/17 01:37:40;;;;;;;11.75;7.53;;;;;;;14.83;52.36;99540.94;1747571;81;21418;-59
2021/09/17 01:40:08;;;;;;;13.15;7.90;;;;;;;14.83;52.24;99536.97;1748022;80;21474;-60
2021/09/17 01:42:35;;;;;;;10.88;7.35;;;;;;;14.85;52.16;99535.07;1777732;80;21409;-60
2021/09/17 01:45:02;;;;;;;11.30;7.50;;;;;;;14.83;52.09;99529.03;1753565;80;21032;-60
2021/09/17 01:47:28;;;;;;;10.30;7.50;;;;;;;14.86;52.09;99526.20;1767471;80;21593;-59
2021/09/17 01:49:55;;;;;;;11.95;6.95;;;;;;;14.88;52.14;99517.69;1763479;79;22025;-59
2021/09/17 01:52:21;;;;;;;10.40;6.95;;;;;;;14.89;51.96;99518.53;1764574;80;21489;-60
2021/09/17 01:54:49;;;;;;;13.88;6.67;;;;;;;14.88;51.81;99515.04;1778781;80;21411;-59
2021/09/17 01:57:16;;;;;;;12.68;6.85;;;;;;;14.90;51.83;99506.53;1778734;80;21443;-59
2021/09/17 01:59:42;;;;;;;11.10;6.70;;;;;;;14.91;51.72;99506.05;1776590;80;21517;-60
2021/09/17 02:02:09;;;;;;;8.75;6.75;;;;;;;14.94;51.76;99506.70;1774879;80;21862;-60
2021/09/17 02:04:36;;;;;;;9.73;6.50;;;;;;;14.94;51.57;99503.22;1768454;80;21411;-62
2021/09/17 02:07:03;;;;;;;7.67;6.00;;;;;;;14.97;51.40;99500.36;1776655;80;20990;-60
2021/09/17 02:09:31;;;;;;;9.00;6.15;;;;;;;15.01;51.45;99497.05;1763718;78;21509;-59
2021/09/17 02:11:58;;;;;;;8.20;6.42;;;;;;;15.00;51.32;99492.23;1771469;80;21718;-60
2021/09/17 02:14:26;;;;;;;9.80;5.65;;;;;;;15.03;51.22;99489.84;1747601;81;21410;-61
2021/09/17 02:16:53;;;;;;;11.10;5.93;;;;;;;15.04;51.17;99488.44;1747883;81;20985;-61
2021/09/17 02:19:20;;;;;;;10.13;5.67;;;;;;;15.08;50.88;99487.28;1747625;81;21419;-60
2021/09/17 02:21:49;;;;;;;8.50;5.35;;;;;;;15.11;50.71;99488.42;1765679;80;21418;-60
2021/09/17 02:24:16;;;;;;;7.25;5.87;;;;;;;15.15;50.60;99478.00;1774915;80;21474;-60
2021/09/17 02:26:43;;;;;;;8.25;5.45;;;;;;;15.19;50.42;99480.83;1769429;80;22019;-60
2021/09/17 02:29:10;;;;;;;10.48;5.47;;;;;;;15.22;50.34;99476.27;1745010;81;21431;-60
2021/09/17 02:31:37;;;;;;;8.90;5.53;;;;;;;15.23;50.32;99465.59;1747221;80;21468;-60
2021/09/17 02:34:04;;;;;;;7.97;5.47;;;;;;;15.26;50.24;99472.50;1744646;81;21497;-60
2021/09/17 02:36:31;;;;;;;9.13;5.08;;;;;;;15.28;50.20;99462.66;1744853;81;21639;-60
2021/09/17 02:38:58;;;;;;;7.42;5.72;;;;;;;15.29;50.20;99465.19;1744821;80;21844;-61
2021/09/17 02:41:24;;;;;;;7.55;5.17;;;;;;;15.31;50.05;99463.31;1740313;81;21492;-61
2021/09/17 02:43:53;;;;;;;9.70;5.50;;;;;;;15.34;49.97;99467.55;1773834;80;21553;-60
2021/09/17 02:46:19;;;;;;;10.20;5.25;;;;;;;15.33;50.08;99463.19;1776109;80;21422;-60
2021/09/17 02:48:46;;;;;;;7.45;5.45;;;;;;;15.30;50.01;99458.11;1763642;80;20991;-60
2021/09/17 02:51:12;;;;;;;7.78;5.28;;;;;;;15.30;49.84;99454.98;1745056;81;21560;-60
2021/09/17 02:53:39;;;;;;;10.55;5.00;;;;;;;15.31;49.66;99446.09;1744521;81;21557;-60
2021/09/17 02:56:07;;;;;;;9.15;5.30;;;;;;;15.34;49.65;99441.91;1764771;79;21408;-60
2021/09/17 02:58:36;;;;;;;7.03;4.58;;;;;;;15.35;49.70;99438.31;1773492;80;21541;-60
2021/09/17 03:01:04;;;;;;;8.05;5.22;;;;;;;15.36;49.49;99438.67;1750469;80;21537;-61
2021/09/17 03:03:32;;;;;;;6.53;4.62;;;;;;;15.36;49.38;99436.51;1745005;80;21651;-59
2021/09/17 03:05:58;;;;;;;6.75;4.87;;;;;;;15.35;49.43;99433.47;1745169;81;21482;-58
2021/09/17 03:08:27;;;;;;;6.67;5.10;;;;;;;15.35;49.20;99431.70;1751163;80;21443;-59
2021/09/17 03:10:57;;;;;;;6.55;4.37;;;;;;;15.37;49.43;99433.77;1768044;80;21463;-60
2021/09/17 03:13:25;;;;;;;10.13;4.45;;;;;;;15.40;49.48;99431.38;1752056;80;21545;-60
2021/09/17 03:15:52;;;;;;;10.72;4.70;;;;;;;15.42;49.40;99429.95;1744935;81;21610;-60
2021/09/17 03:18:21;;;;;;;7.85;4.60;;;;;;;15.43;49.45;99429.86;1745330;80;21546;-60
2021/09/17 03:20:50;;;;;;;7.28;4.40;;;;;;;15.45;49.23;99432.41;1740291;81;21428;-60
2021/09/17 03:23:17;;;;;;;6.55;4.55;;;;;;;15.48;49.22;99428.22;1744452;80;21567;-61
2021/09/17 03:25:44;;;;;;;;;;;;;;;15.50;49.24;99417.91;1772550;80;21419;-61
2021/09/17 03:28:11;;;;;;;7.08;4.10;;;;;;;15.53;49.15;99428.28;1766040;80;22090;-61
2021/09/17 03:30:38;;;;;;;5.50;4.33;;;;;;;15.54;49.51;99425.18;1738655;80;21570;-62
2021/09/17 03:33:04;;;;;;;5.23;4.27;;;;;;;15.54;49.79;99425.18;1771046;80;21522;-60
2021/09/17 03:35:31;;;;;;;11.68;4.53;;;;;;;15.57;49.67;99426.28;1771107;80;21399;-60
2021/09/17 03:37:57;;;;;;;7.80;4.60;;;;;;;15.60;49.42;99425.25;1771022;79;20914;-60
2021/09/17 03:40:26;;;;;;;9.75;5.03;;;;;;;15.61;49.40;99417.17;1770660;80;21526;-60
2021/09/17 03:42:52;;;;;;;7.25;4.97;;;;;;;15.58;49.44;99414.26;1740293;82;21541;-60
2021/09/17 03:45:19;;;;;;;5.05;4.40;;;;;;;15.62;49.47;99413.58;1740361;82;21423;-60
2021/09/17 03:47:45;;;;;;;6.42;4.90;;;;;;;15.65;49.83;99416.48;1756920;79;21434;-60
2021/09/17 03:50:12;;;;;;;9.28;5.03;;;;;;;15.65;49.95;99415.16;1757887;80;21446;-59
2021/09/17 03:52:39;;;;;;;9.50;4.75;;;;;;;15.63;49.81;99407.80;1740742;80;21794;-60
2021/09/17 03:55:07;;;;;;;6.53;5.00;;;;;;;15.63;49.80;99409.96;1763222;80;21604;-59
2021/09/17 03:57:33;;;;;;;7.12;4.47;;;;;;;15.64;49.96;99408.19;1740117;80;21498;-59
2021/09/17 04:00:00;;;;;;;6.80;4.67;;;;;;;15.66;49.78;99411.09;1742097;80;21483;-59
2021/09/17 04:02:27;;;;;;;9.30;4.40;;;;;;;15.66;49.76;99403.62;1741058;80;21430;-59
2021/09/17 04:04:53;;;;;;;8.33;4.92;;;;;;;15.65;49.77;99397.48;1740099;82;21471;-60
2021/09/17 04:07:20;;;;;;;10.78;5.15;;;;;;;15.67;49.81;99397.35;1740291;80;21454;-59
2021/09/17 04:09:46;;;;;;;8.80;4.90;;;;;;;15.67;50.04;99399.55;1740286;82;21438;-60
2021/09/17 04:12:13;;;;;;;8.88;4.70;;;;;;;15.67;49.64;99390.73;1751461;80;21478;-63
2021/09/17 04:14:40;;;;;;;6.17;4.75;;;;;;;15.65;49.55;99386.88;1766084;80;21553;-61
2021/09/17 04:17:07;;;;;;;11.57;4.70;;;;;;;15.65;49.69;99383.36;1738553;82;21812;-60
2021/09/17 04:19:36;;;;;;;6.33;4.75;;;;;;;15.65;49.90;99379.38;1740650;80;21486;-62
2021/09/17 04:22:04;;;;;;;7.78;4.20;;;;;;;15.64;49.80;99382.52;1740256;82;21514;-60
2021/09/17 04:24:33;;;;;;;8.83;4.62;;;;;;;15.62;50.23;99375.16;1743071;81;21499;-60
2021/09/17 04:27:00;;;;;;;9.90;5.20;;;;;;;15.61;50.42;99378.74;1747408;80;21478;-60
2021/09/17 04:29:26;;;;;;;6.70;5.10;;;;;;;15.63;50.53;99375.99;1745708;80;21814;-60
2021/09/17 04:31:53;;;;;;;8.30;5.10;;;;;;;15.64;50.52;99374.57;1745204;81;21569;-60
2021/09/17 04:34:23;;;;;;;7.12;4.92;;;;;;;15.65;50.45;99370.11;1744837;80;21548;-60
2021/09/17 04:36:51;;;;;;;8.53;4.67;;;;;;;15.63;50.52;99363.59;1769309;80;21482;-60
2021/09/17 04:39:19;;;;;;;12.37;5.35;;;;;;;15.63;50.57;99362.74;1762869;80;21433;-60
2021/09/17 04:41:46;;;;;;;13.28;4.92;;;;;;;15.63;50.59;99366.72;1762646;80;21795;-61
2021/09/17 04:44:12;;;;;;;6.35;4.30;;;;;;;15.64;50.85;99367.11;1744669;80;21565;-62
2021/09/17 04:46:39;;;;;;;7.73;4.30;;;;;;;15.61;50.55;99360.68;1746133;80;21474;-61
2021/09/17 04:49:06;;;;;;;8.58;4.67;;;;;;;15.60;50.51;99362.48;1744756;81;21444;-61
2021/09/17 04:51:34;;;;;;;10.20;4.90;;;;;;;15.62;50.38;99361.91;1744661;80;21501;-60
2021/09/17 04:54:00;;;;;;;10.13;5.33;;;;;;;15.61;50.19;99352.73;1744902;81;21825;-61
2021/09/17 04:56:29;;;;;;;8.45;4.85;;;;;;;15.61;50.32;99350.92;1747336;80;21501;-61
2021/09/17 04:58:56;;;;;;;7.22;4.60;;;;;;;15.60;50.45;99354.54;1757071;80;20992;-60
2021/09/17 05:01:22;;;;;;;7.67;5.00;;;;;;;15.60;50.38;99348.40;1746509;79;21508;-61
2021/09/17 05:03:50;;;;;;;6.37;5.15;;;;;;;15.61;50.41;99349.59;1754585;80;21426;-60
2021/09/17 05:06:18;;;;;;;8.80;4.40;;;;;;;15.63;50.42;99347.69;1775823;80;21805;-60
2021/09/17 05:08:47;;;;;;;7.22;4.62;;;;;;;15.67;50.76;99348.33;1775572;79;21384;-61
2021/09/17 05:11:15;;;;;;;7.47;5.03;;;;;;;15.69;51.06;99350.39;1745147;80;21514;-61
2021/09/17 05:13:42;;;;;;;8.68;4.95;;;;;;;15.72;50.79;99342.24;1745071;80;21537;-61
2021/09/17 05:16:10;;;;;;;10.28;4.62;;;;;;;15.76;50.76;99344.63;1738652;81;20941;-60
2021/09/17 05:18:36;;;;;;;11.03;4.80;;;;;;;15.80;50.83;99343.91;1739080;80;22050;-60
2021/09/17 05:21:03;;;;;;;8.60;4.55;;;;;;;15.86;51.04;99351.91;1744758;81;21533;-60
2021/09/17 05:23:31;;;;;;;10.95;4.55;;;;;;;15.88;50.98;99344.24;1750507;80;21745;-61
2021/09/17 05:25:59;;;;;;;7.70;4.80;;;;;;;15.89;51.32;99340.62;1765365;80;21420;-61
2021/09/17 05:28:27;;;;;;;7.50;4.33;;;;;;;15.92;51.13;99331.14;1762558;80;21441;-60
2021/09/17 05:30:53;;;;;;;7.70;5.60;;;;;;;15.96;51.09;99329.96;1742048;81;22107;-61
2021/09/17 05:33:20;;;;;;;13.72;10.30;;;;;;;16.01;51.28;99333.63;1742257;80;20941;-60
2021/09/17 05:35:47;;;;;;;9.60;7.85;;;;;;;16.05;51.16;99333.78;1755959;80;21395;-62
2021/09/17 05:38:13;;;;;;;13.35;8.88;;;;;;;16.08;51.19;99328.73;1757268;80;21542;-61
2021/09/17 05:40:40;;;;;;;7.60;5.60;;;;;;;16.14;51.45;99327.83;1755692;79;21565;-60
2021/09/17 05:43:07;;;;;;;6.60;5.25;;;;;;;16.21;51.57;99323.41;1746307;80;21671;-62
2021/09/17 05:45:34;;;;;;;9.03;4.85;;;;;;;16.23;51.73;99325.47;1753368;80;20989;-62
2021/09/17 05:48:00;;;;;;;9.28;5.22;;;;;;;16.30;51.84;99320.10;1753455;80;21459;-60
2021/09/17 05:50:27;;;;;;;9.63;5.95;;;;;;;16.37;52.02;99313.41;1745482;80;21442;-60
2021/09/17 05:52:56;;;;;;;13.22;6.37;;;;;;;16.45;52.22;99316.83;1757082;80;21569;-60
2021/09/17 05:55:27;;;;;;;;;;;;;;;16.54;52.16;99313.02;1736696;80;21461;-59
2021/09/17 05:57:52;;;;;;;8.63;4.92;;;;;;;16.60;52.38;99311.73;1756874;80;20417;-59
2021/09/17 06:00:19;;;;;;;15.70;5.80;;;;;;;16.63;52.45;99311.97;1755846;80;21498;-59
2021/09/17 06:02:46;;;;;;;9.43;6.43;;;;;;;16.67;52.64;99302.81;1747195;80;21518;-59
2021/09/17 06:05:13;;;;;;;9.03;5.37;;;;;;;16.73;52.73;99304.55;1765952;80;21530;-60
2021/09/17 06:07:43;;;;;;;15.72;5.22;;;;;;;16.80;52.91;99301.44;1769388;80;21700;-61
2021/09/17 06:10:12;;;;;;;11.50;4.95;;;;;;;16.84;53.00;99301.15;1762512;80;21479;-60
2021/09/17 06:12:39;;;;;;;10.20;5.25;;;;;;;16.88;52.99;99296.45;1751287;79;21415;-60
2021/09/17 06:15:07;;;;;;;10.63;4.75;;;;;;;16.91;53.18;99297.54;1744521;80;21569;-60
2021/09/17 06:17:35;;;;;;;8.95;5.70;;;;;;;16.97;53.57;99296.23;1769831;80;21434;-60
2021/09/17 06:20:02;;;;;;;10.38;5.70;;;;;;;17.02;53.73;99295.42;1764027;80;21813;-61
2021/09/17 06:22:29;;;;;;;9.45;5.65;;;;;;;17.08;54.01;99294.48;1748757;80;21531;-61
2021/09/17 06:24:57;;;;;;;10.43;5.35;;;;;;;17.12;54.12;99295.08;1769743;79;21381;-61
2021/09/17 06:27:24;;;;;;;7.50;5.37;;;;;;;17.15;53.97;99286.89;1749325;80;21009;-60
2021/09/17 06:29:51;;;;;;;8.50;5.17;;;;;;;17.17;54.21;99284.95;1738951;82;21667;-62
2021/09/17 06:32:17;;;;;;;13.90;5.45;;;;;;;17.15;54.31;99279.41;1748039;80;22015;-62
2021/09/17 06:34:44;;;;;;;10.15;5.50;;;;;;;17.20;54.35;99277.26;1753242;80;21525;-61
2021/09/17 06:38:36;;;;;;;12.82;5.80;;;;;;;17.25;54.78;99275.95;1767207;79;23216;-62
2021/09/17 06:41:02;;;;;;;13.13;5.62;;;;;;;17.25;54.78;99275.95;1753888;79;21449;-61
2021/09/17 06:43:29;;;;;;;7.75;5.40;;;;;;;17.30;54.75;99275.58;1750591;80;21806;-62
2021/09/17 06:45:56;;;;;;;11.95;5.58;;;;;;;17.36;54.80;99271.11;1717714;82;21478;-61
2021/09/17 06:48:22;;;;;;;10.70;5.60;;;;;;;17.38;54.82;99267.02;1717683;81;21568;-61
2021/09/17 06:50:49;;;;;;;11.93;5.97;;;;;;;17.39;54.87;99263.41;1762778;79;21727;-61
2021/09/17 06:53:16;;;;;;;11.68;5.95;;;;;;;17.41;54.77;99262.31;1766321;79;20938;-62
2021/09/17 06:55:47;;;;;;;14.85;5.58;;;;;;;17.45;54.84;99262.92;1746571;80;21784;-61
2021/09/17 06:58:15;;;;;;;12.68;6.70;;;;;;;17.53;54.98;99264.98;1746408;81;21542;-62
2021/09/17 07:00:42;;;;;;;12.80;5.75;;;;;;;17.55;55.09;99265.22;1746698;80;21486;-61
2021/09/17 07:03:09;;;;;;;13.83;7.67;;;;;;;17.60;55.17;99262.22;1747518;80;21483;-61
2021/09/17 07:05:36;;;;;;;15.00;7.75;;;;;;;17.63;55.36;99253.98;1747761;80;21423;-62
2021/09/17 07:08:06;;;;;;;15.55;8.00;;;;;;;17.66;55.70;99253.27;1754686;78;22154;-62
2021/09/17 07:10:36;;;;;;;17.92;8.30;;;;;;;17.73;55.53;99254.97;1717662;82;21534;-61
2021/09/17 07:13:05;;;;;;;20.82;10.82;;;;;;;17.82;55.99;99255.58;1728289;80;21554;-62
2021/09/17 07:15:32;;;;;;;14.87;7.85;;;;;;;17.88;56.10;99248.97;1781888;79;21579;-62
2021/09/17 07:17:58;;;;;;;8.13;6.37;;;;;;;17.93;56.22;99245.92;1762421;79;21435;-62
2021/09/17 07:20:25;;;;;;;10.50;6.67;;;;;;;17.99;56.28;99244.97;1738417;80;21784;-61
2021/09/17 07:22:52;;;;;;;15.38;8.23;;;;;;;18.08;56.27;99243.36;1747618;81;21550;-62
2021/09/17 07:25:19;;;;;;;12.37;7.40;;;;;;;18.17;56.42;99246.61;1746278;80;21467;-62
2021/09/17 07:27:46;;;;;;;10.58;6.90;;;;;;;18.23;56.50;99246.14;1746557;80;21608;-60
2021/09/17 07:30:15;;;;;;;17.62;9.55;;;;;;;18.28;56.47;99247.92;1746954;80;21100;-61
2021/09/17 07:32:41;;;;;;;19.27;6.87;;;;;;;18.36;56.24;99245.13;1745529;80;21742;-61
2021/09/17 07:35:09;;;;;;;15.48;8.20;;;;;;;18.41;56.33;99238.46;1742590;81;21439;-63
2021/09/17 07:37:36;;;;;;;15.05;9.80;;;;;;;18.44;56.59;99234.69;1742467;81;21468;-62
2021/09/17 07:40:04;;;;;;;;;;;;;;;18.49;56.63;99240.48;1736067;81;21471;-63
2021/09/17 07:42:31;;;;;;;;;;;;;;;18.56;56.79;99232.36;1728491;82;20559;-62
2021/09/17 07:44:58;;;;;;;17.35;7.53;;;;;;;18.57;56.98;99235.41;1723598;80;22265;-64
2021/09/17 07:47:24;;;;;;;9.58;6.45;;;;;;;18.55;56.55;99225.34;1720895;82;21672;-60
2021/09/17 07:49:51;;;;;;;11.25;7.25;;;;;;;18.56;56.89;99229.70;1723431;80;21605;-63
2021/09/17 07:52:18;;;;;;;14.05;10.48;;;;;;;18.60;56.93;99226.30;1723928;82;21444;-62
2021/09/17 07:54:45;;;;;;;16.80;8.98;;;;;;;18.63;57.07;99228.72;1731980;81;21542;-67
2021/09/17 07:57:11;;;;;;;10.88;8.55;;;;;;;18.67;57.36;99226.16;1738849;81;22064;-64
2021/09/17 07:59:38;;;;;;;12.90;7.75;;;;;;;18.72;57.44;99221.77;1736768;80;21484;-65
2021/09/17 08:02:07;;;;;;;13.15;8.60;;;;;;;18.79;57.58;99220.29;1739349;80;21447;-66
2021/09/17 08:04:37;;;;;;;14.07;9.90;;;;;;;18.85;57.33;99222.00;1742197;80;21459;-65
2021/09/17 08:07:03;;;;;;;12.68;8.40;;;;;;;18.88;57.58;99216.05;1742985;80;21511;-64
2021/09/17 08:09:32;;;;;;;20.00;9.35;;;;;;;18.92;57.32;99214.32;1725968;80;21814;-65
2021/09/17 08:11:59;;;;;;;16.77;8.93;;;;;;;18.98;57.76;99216.45;1717164;81;21587;-66
2021/09/17 08:14:26;;;;;;;16.17;8.68;;;;;;;19.03;58.31;99218.75;1739579;81;21085;-67
2021/09/17 08:16:53;;;;;;;14.90;9.48;;;;;;;19.01;58.28;99217.54;1739572;80;21475;-65
2021/09/17 08:19:20;;;;;;;14.68;8.00;;;;;;;19.00;58.23;99213.17;1742427;80;27208;-66
2021/09/17 08:21:47;;;;;;;14.87;7.80;;;;;;;19.02;57.93;99206.39;1770381;79;21862;-65
2021/09/17 08:24:15;;;;;;;13.20;9.00;;;;;;;19.01;57.88;99207.38;1731693;79;21553;-65
2021/09/17 08:26:44;;;;;;;18.32;9.25;;;;;;;19.00;58.04;99192.36;1726987;80;20982;-64
2021/09/17 08:29:11;;;;;;;15.72;8.53;;;;;;;19.04;58.07;99191.98;1750268;79;21401;-65
2021/09/17 08:31:38;;;;;;;13.70;7.15;;;;;;;19.04;58.07;99191.98;1744776;80;21494;-66
2021/09/17 08:34:05;;;;;;;15.80;9.50;;;;;;;19.08;58.34;99191.70;1739617;80;21837;-64
2021/09/17 08:36:33;;;;;;;13.25;6.75;;;;;;;19.07;58.69;99188.20;1739727;81;21459;-64
2021/09/17 08:39:03;;;;;;;14.13;6.60;;;;;;;19.14;59.35;99189.87;1746400;80;21494;-65
2021/09/17 08:41:30;;;;;;;10.35;6.67;;;;;;;19.38;58.52;99176.22;1746883;81;21550;-65
2021/09/17 08:43:58;;;;;;;13.78;7.37;;;;;;;19.38;58.52;99176.22;1725594;81;21636;-65
2021/09/17 08:46:26;;;;;;;10.70;6.58;;;;;;;19.47;58.67;99170.59;1721522;82;21475;-65
2021/09/17 08:48:52;;;;;;;12.58;6.08;;;;;;;19.59;58.44;99162.83;1739846;81;21545;-65
2021/09/17 08:51:21;;;;;;;12.10;6.30;;;;;;;19.68;58.38;99163.36;1717483;82;21423;-65
2021/09/17 08:53:48;;;;;;;9.55;6.72;;;;;;;19.68;58.38;99163.36;1743926;80;21468;-65
2021/09/17 08:56:16;;;;;;;11.30;6.90;;;;;;;19.73;58.54;99161.17;1747446;81;21494;-64
2021/09/17 08:58:45;;;;;;;18.75;6.80;;;;;;;19.86;58.45;99158.27;1747210;81;21503;-64
2021/09/17 09:01:29;;;;;;;;;;;;;;;19.86;58.45;99158.27;1725611;81;21542;-65
2021/09/17 09:03:59;;;;;;;13.25;7.22;;;;;;;19.95;58.24;99149.94;1717382;82;20167;-61
2021/09/17 09:06:27;;;;;;;19.02;7.65;;;;;;;19.95;58.24;99149.94;1717234;82;20989;-60
2021/09/17 09:08:55;;;;;;;14.53;6.92;;;;;;;20.01;58.27;99152.05;1717490;82;21553;-66
2021/09/17 09:11:25;;;;;;;9.78;6.78;;;;;;;20.06;58.18;99142.28;1717216;81;21809;-64
2021/09/17 09:14:11;;;;;;;11.50;7.03;;;;;;;20.10;58.48;99134.34;1717228;81;21596;-63
2021/09/17 09:16:42;;;;;;;12.05;6.67;;;;;;;20.19;58.28;99126.38;1723729;81;21436;-63
2021/09/17 09:19:28;;;;;;;15.35;7.42;;;;;;;20.19;58.28;99126.38;1723819;81;21081;-66
2021/09/17 09:22:07;;;;;;;12.93;6.53;;;;;;;20.26;57.93;99128.47;1733466;81;21588;-61
2021/09/17 09:24:43;;;;;;;16.62;7.30;;;;;;;20.30;57.67;99129.38;1726236;81;22038;-64
2021/09/17 09:27:19;;;;;;;9.68;6.35;;;;;;;20.34;57.87;99131.27;1725511;80;21543;-63
2021/09/17 09:29:51;;;;;;;13.13;6.78;;;;;;;20.38;57.86;99126.00;1728066;81;21569;-64
2021/09/17 09:32:31;;;;;;;14.47;6.92;;;;;;;20.41;57.78;99117.22;1727554;81;21543;-65
2021/09/17 09:35:04;;;;;;;12.90;6.55;;;;;;;20.51;58.12;99118.57;1723054;81;20962;-63
2021/09/17 09:37:34;;;;;;;14.20;6.37;;;;;;;20.51;58.12;99118.57;1722845;81;22421;-63
2021/09/17 09:40:12;;;;;;;13.65;6.45;;;;;;;20.54;57.88;99115.59;1715464;81;21815;-63
2021/09/17 09:42:45;;;;;;;10.80;6.10;;;;;;;20.66;57.68;99112.80;1715379;80;20943;-63
2021/09/17 09:45:21;;;;;;;13.32;6.08;;;;;;;20.66;57.68;99112.80;1717301;81;21571;-64
2021/09/17 09:47:53;;;;;;;10.20;5.83;;;;;;;20.69;57.67;99105.34;1699772;82;21574;-62
2021/09/17 09:50:26;;;;;;;8.23;5.60;;;;;;;20.75;57.82;99108.77;1701867;82;22049;-65
2021/09/17 09:53:00;;;;;;;10.48;5.55;;;;;;;20.80;57.62;99111.03;1713976;81;21677;-61
2021/09/17 09:55:29;;;;;;;12.47;6.22;;;;;;;20.84;57.43;99100.90;1717512;82;21621;-67
2021/09/17 09:57:56;;;;;;;16.87;7.17;;;;;;;20.88;57.43;99100.45;1707960;82;21034;-62
2021/09/17 10:00:27;;;;;;;16.40;5.73;;;;;;;20.97;56.94;99097.41;1704686;82;21085;-62
2021/09/17 10:02:55;;;;;;;11.70;6.00;;;;;;;20.97;56.94;99097.41;1723606;82;22068;-62
2021/09/17 10:05:25;;;;;;;7.25;5.83;;;;;;;20.99;56.75;99098.94;1723493;81;21101;-63
2021/09/17 10:07:52;;;;;;;7.67;5.75;;;;;;;21.02;56.76;99093.82;1722864;81;21677;-64
2021/09/17 10:10:18;;;;;;;11.80;6.55;;;;;;;21.06;56.29;99093.87;1714708;82;21468;-62
2021/09/17 10:12:46;;;;;;;14.23;6.70;;;;;;;21.08;56.23;99089.69;1719729;81;21502;-65
2021/09/17 10:15:14;;;;;;;12.18;6.30;;;;;;;21.13;56.16;99088.77;1720139;81;21779;-64
2021/09/17 10:17:41;;;;;;;9.28;6.65;;;;;;;21.18;56.04;99081.16;1719130;81;21531;-65
2021/09/17 10:20:09;;;;;;;8.55;6.05;;;;;;;21.25;55.78;99080.05;1656674;83;21546;-63
2021/09/17 10:22:46;;;;;;;12.03;5.87;;;;;;;21.29;55.45;99078.29;1717115;82;22033;-62
2021/09/17 10:25:24;;;;;;;9.80;6.20;;;;;;;21.34;55.16;99082.70;1715790;81;21510;-63
2021/09/17 10:28:08;;;;;;;11.50;6.00;;;;;;;21.44;54.68;99077.34;1716897;82;21839;-67
2021/09/17 10:30:40;;;;;;;17.62;6.03;;;;;;;21.44;54.68;99077.34;1720965;82;22217;-63
2021/09/17 10:33:27;;;;;;;12.00;6.42;;;;;;;21.46;54.71;99081.20;1719524;81;20991;-62
2021/09/17 10:35:54;;;;;;;15.30;6.58;;;;;;;21.47;54.24;99076.19;1724203;81;21506;-62
2021/09/17 10:38:30;;;;;;;7.65;6.28;;;;;;;21.49;54.19;99079.55;1722569;80;21480;-62
2021/09/17 10:41:03;;;;;;;17.05;6.95;;;;;;;21.49;53.83;99075.06;1715434;81;21828;-61
2021/09/17 10:43:49;;;;;;;13.45;6.83;;;;;;;21.45;54.00;99074.16;1712126;81;21701;-64
2021/09/17 10:46:28;;;;;;;14.00;5.97;;;;;;;21.46;53.77;99072.68;1714494;81;21581;-63
2021/09/17 10:48:56;;;;;;;;;;;;;;;21.45;53.73;99080.84;1715861;82;21507;-60
2021/09/17 10:51:40;;;;;;;10.35;7.08;;;;;;;21.44;53.92;99074.66;1714507;81;20439;-61
2021/09/17 10:54:19;;;;;;;9.45;6.58;;;;;;;21.41;54.02;99072.24;1711460;82;23684;-63
2021/09/17 10:57:01;;;;;;;10.53;6.42;;;;;;;21.39;54.00;99061.69;1709611;82;21492;-61
2021/09/17 10:59:39;;;;;;;18.62;6.55;;;;;;;21.34;54.01;99059.12;1718441;82;21480;-61
2021/09/17 11:02:08;;;;;;;13.83;6.30;;;;;;;21.30;54.18;99062.58;1709120;81;21530;-61
2021/09/17 11:04:45;;;;;;;18.17;7.40;;;;;;;21.28;54.51;99055.20;1719509;81;21483;-62
2021/09/17 11:07:29;;;;;;;11.00;7.08;;;;;;;21.29;54.35;99050.22;1716851;81;22122;-63
2021/09/17 11:09:56;;;;;;;11.20;6.33;;;;;;;21.31;54.70;99060.77;1712913;81;21044;-63
2021/09/17 11:12:38;;;;;;;9.45;6.58;;;;;;;21.30;54.45;99049.72;1728935;81;21519;-63
2021/09/17 11:15:14;;;;;;;15.68;6.22;;;;;;;21.31;54.27;99056.26;1719779;81;21516;-62
2021/09/17 11:18:01;;;;;;;15.85;6.80;;;;;;;21.29;54.44;99058.24;1733448;81;21570;-65
2021/09/17 11:20:28;;;;;;;14.38;6.20;;;;;;;21.27;54.33;99053.54;1733716;81;21786;-65
2021/09/17 11:23:05;;;;;;;11.65;6.72;;;;;;;21.27;54.53;99050.87;1720022;81;21543;-63
2021/09/17 11:25:43;;;;;;;12.00;6.00;;;;;;;21.30;54.61;99042.53;1734180;81;21034;-64
2021/09/17 11:28:32;;;;;;;12.88;6.53;;;;;;;21.33;54.73;99043.58;1734000;81;20955;-64
2021/09/17 11:31:15;;;;;;;12.98;6.75;;;;;;;21.36;54.79;99044.62;1704504;82;21499;-63
2021/09/17 11:33:42;;;;;;;14.90;7.10;;;;;;;21.37;54.92;99034.27;1721955;82;21858;-64
2021/09/17 11:36:10;;;;;;;14.55;6.92;;;;;;;21.42;55.05;99032.97;1734083;81;21400;-63
2021/09/17 11:38:37;;;;;;;18.57;6.50;;;;;;;21.44;54.85;99024.33;1737537;80;21479;-63